Terminal Aerodrome Forecast
Issued by NWS

Home | Current Version | Previous Version | Text Only | Print | Product List | Glossary On
Versions: 1 2 3 4 5 6 7 8 9 10 11 12
000
FTUS46 KLOX 012300 RRA
TAFWJF
TAF
KWJF 012340Z 0200/0224 24018G23KT P6SM SKC
     FM020400 24014KT P6SM SKC
     FM020900 25008KT P6SM BKN200
     FM021400 VRB05KT P6SM BKN200
     FM021800 23008KT P6SM SCT150 OVC200
     FM022100 22014G20KT P6SM SCT100 OVC200
     FM022300 21020G28KT P6SM SCT100 OVC200=

USA.gov is the U.S. government's official web portal to all federal, state and local government web resources and services.